createdAt,value
2022-09-03T00:04:30.125Z,2.00
2022-09-03T00:09:21.825Z,2.08
2022-09-03T00:14:07.441Z,2.58
2022-09-03T00:18:33.903Z,2.30
2022-09-03T00:23:01.522Z,2.40
2022-09-03T00:27:27.244Z,2.03
2022-09-03T00:32:05.243Z,2.10
2022-09-03T00:36:44.163Z,2.00
2022-09-03T00:41:38.823Z,2.38
2022-09-03T00:46:56.622Z,1.75
2022-09-03T00:51:33.802Z,2.00
2022-09-03T00:55:58.977Z,2.20
2022-09-03T01:00:21.603Z,2.20
2022-09-03T01:05:11.902Z,2.53
2022-09-03T01:09:37.702Z,2.33
2022-09-03T01:14:39.783Z,2.30
2022-09-03T01:19:52.386Z,2.22
2022-09-03T01:25:32.291Z,2.85
2022-09-03T01:30:05.443Z,2.38
2022-09-03T01:34:48.262Z,2.72
2022-09-03T01:39:30.015Z,2.78
2022-09-03T01:44:23.841Z,2.65
2022-09-03T01:48:52.501Z,2.45
2022-09-03T01:53:35.922Z,2.78
2022-09-03T01:58:20.361Z,3.20
2022-09-03T02:02:48.301Z,2.88
2022-09-03T02:07:10.675Z,2.67
2022-09-03T02:11:32.570Z,2.97
2022-09-03T02:16:01.047Z,2.72
2022-09-03T02:20:27.667Z,3.10
2022-09-03T02:24:50.007Z,2.60
2022-09-03T02:29:12.857Z,2.70
2022-09-03T02:33:40.809Z,2.85
2022-09-03T02:38:26.197Z,3.10
2022-09-03T02:42:49.448Z,2.47
2022-09-03T02:47:12.170Z,2.80
2022-09-03T02:51:43.231Z,3.05
2022-09-03T02:56:05.907Z,3.00
2022-09-03T03:00:28.949Z,3.10
2022-09-03T03:04:51.159Z,3.13
2022-09-03T03:09:13.148Z,3.38
2022-09-03T03:13:35.148Z,3.47
2022-09-03T03:17:57.867Z,3.13
2022-09-03T03:22:19.690Z,4.10
2022-09-03T03:26:41.947Z,3.55
2022-09-03T03:31:30.687Z,3.90
2022-09-03T03:35:53.128Z,9.75
2022-09-03T03:40:15.656Z,4.47
2022-09-03T03:44:37.747Z,4.47
2022-09-03T03:49:00.167Z,3.95
2022-09-03T03:53:22.179Z,4.28
2022-09-03T03:57:44.481Z,3.95
2022-09-03T04:02:07.770Z,12.95
2022-09-03T04:06:30.080Z,4.90
2022-09-03T04:10:52.200Z,4.43
2022-09-03T04:15:14.039Z,4.68
2022-09-03T04:19:36.200Z,4.93
2022-09-03T04:23:59.440Z,4.75
2022-09-03T04:28:22.476Z,4.75
2022-09-03T04:32:55.121Z,5.03
2022-09-03T04:37:20.000Z,5.50
2022-09-03T04:41:42.000Z,5.80
2022-09-03T04:46:10.874Z,5.97
2022-09-03T04:50:38.239Z,6.43
2022-09-03T04:55:01.000Z,5.55
2022-09-03T04:59:23.040Z,3.60
2022-09-03T05:03:46.161Z,3.38
2022-09-03T05:08:08.119Z,3.60
2022-09-03T05:12:32.000Z,2.55
2022-09-03T05:16:53.999Z,2.20
2022-09-03T05:21:18.962Z,1.70
2022-09-03T05:25:40.859Z,1.75
2022-09-03T05:30:02.759Z,2.22
2022-09-03T05:34:24.982Z,1.75
2022-09-03T05:38:50.361Z,2.17
2022-09-03T05:43:12.640Z,1.90
2022-09-03T05:47:34.770Z,2.00
2022-09-03T05:51:56.840Z,3.22
2022-09-03T05:56:22.856Z,4.20
2022-09-03T06:00:44.720Z,2.63
2022-09-03T06:05:08.259Z,2.05
2022-09-03T06:09:30.178Z,1.90
2022-09-03T06:13:52.460Z,1.95
2022-09-03T06:18:14.355Z,2.03
2022-09-03T06:22:36.321Z,1.85
2022-09-03T06:26:58.521Z,2.10
2022-09-03T06:31:21.312Z,2.25
2022-09-03T06:35:44.317Z,1.50
2022-09-03T06:40:13.317Z,1.50
2022-09-03T06:44:35.097Z,1.50
2022-09-03T06:48:57.429Z,1.50
2022-09-03T06:53:19.316Z,1.33
2022-09-03T06:57:41.557Z,1.40
2022-09-03T07:02:04.175Z,1.52
2022-09-03T07:06:29.656Z,1.67
2022-09-03T07:10:51.497Z,1.50
2022-09-03T07:15:13.776Z,1.35
2022-09-03T07:19:35.737Z,1.33
2022-09-03T07:24:00.156Z,1.75
2022-09-03T07:28:22.057Z,1.65
2022-09-03T07:32:44.139Z,1.30
2022-09-03T07:37:07.537Z,1.38
2022-09-03T07:41:33.330Z,1.33
2022-09-03T07:45:57.277Z,1.15
2022-09-03T07:50:21.126Z,1.48
2022-09-03T07:54:44.708Z,1.30
2022-09-03T07:59:07.136Z,1.48
2022-09-03T08:03:28.943Z,1.50
2022-09-03T08:07:51.159Z,1.20
2022-09-03T08:12:13.356Z,1.48
2022-09-03T08:16:49.824Z,1.38
2022-09-03T08:21:19.307Z,1.40
2022-09-03T08:25:41.657Z,1.30
2022-09-03T08:30:04.730Z,1.40
2022-09-03T08:34:26.796Z,1.30
2022-09-03T08:38:50.619Z,1.60
2022-09-03T08:43:19.157Z,1.35
2022-09-03T08:48:25.586Z,1.50
2022-09-03T08:53:03.198Z,1.55
2022-09-03T08:57:26.336Z,1.70
2022-09-03T09:02:25.684Z,1.65
2022-09-03T09:07:16.608Z,1.75
2022-09-03T09:12:05.089Z,1.52
2022-09-03T09:17:18.056Z,1.30
2022-09-03T09:21:53.316Z,1.53
2022-09-03T09:26:24.381Z,1.40
2022-09-03T09:30:50.016Z,1.70
2022-09-03T09:35:12.403Z,1.27
2022-09-03T09:39:34.933Z,1.25
2022-09-03T09:44:03.398Z,1.50
2022-09-03T09:48:32.838Z,1.50
2022-09-03T09:53:14.914Z,1.45
2022-09-03T09:57:38.256Z,1.50
2022-09-03T10:02:22.294Z,1.90
2022-09-03T10:06:59.671Z,1.38
2022-09-03T10:11:25.955Z,1.55
2022-09-03T10:16:16.610Z,1.38
2022-09-03T10:21:28.992Z,1.50
2022-09-03T10:26:30.636Z,1.58
2022-09-03T10:31:12.069Z,1.40
2022-09-03T10:35:46.654Z,1.30
2022-09-03T10:40:31.105Z,1.40
2022-09-03T10:45:46.714Z,1.60
2022-09-03T10:50:19.907Z,1.55
2022-09-03T10:55:23.793Z,1.40
2022-09-03T11:00:10.951Z,1.30
2022-09-03T11:05:04.051Z,1.38
2022-09-03T11:09:40.933Z,1.40
2022-09-03T11:14:10.852Z,1.75
2022-09-03T11:18:47.112Z,1.35
2022-09-03T11:23:13.631Z,1.80
2022-09-03T11:27:42.131Z,1.40
2022-09-03T11:32:36.251Z,1.48
2022-09-03T11:37:27.851Z,1.38
2022-09-03T11:42:08.931Z,1.60
2022-09-03T11:46:31.938Z,1.40
2022-09-03T11:50:55.970Z,1.40
2022-09-03T11:55:38.346Z,1.30
2022-09-03T12:00:18.312Z,1.40
2022-09-03T12:05:35.270Z,1.60
2022-09-03T12:10:24.896Z,1.67
2022-09-03T12:15:44.194Z,1.60
2022-09-03T12:20:15.131Z,1.30
2022-09-03T12:24:38.307Z,1.83
2022-09-03T12:29:01.271Z,1.45
2022-09-03T12:33:24.032Z,1.38
2022-09-03T12:42:32.096Z,1.50
2022-09-03T12:51:54.567Z,1.65
2022-09-03T12:56:19.978Z,1.80
2022-09-03T13:00:50.416Z,1.70
2022-09-03T13:05:20.192Z,1.70
2022-09-03T13:09:43.132Z,1.70
2022-09-03T13:14:14.532Z,1.60
2022-09-03T13:19:09.954Z,1.52
2022-09-03T13:23:55.611Z,1.50
2022-09-03T13:28:31.991Z,1.50
2022-09-03T13:33:26.536Z,1.60
2022-09-03T13:38:15.671Z,1.90
2022-09-03T13:42:43.913Z,1.60
2022-09-03T13:47:10.471Z,1.42
2022-09-03T13:51:45.151Z,1.90
2022-09-03T13:56:52.871Z,1.98
2022-09-03T14:02:01.142Z,1.60
2022-09-03T14:06:45.212Z,1.48
2022-09-03T14:11:23.952Z,1.55
2022-09-03T14:16:12.529Z,1.70
2022-09-03T14:21:00.171Z,1.67
2022-09-03T14:25:27.749Z,1.70
2022-09-03T14:30:00.552Z,1.83
2022-09-03T14:34:50.576Z,1.55
2022-09-03T14:39:34.638Z,1.48
2022-09-03T14:44:53.373Z,1.40
2022-09-03T14:49:57.972Z,1.95
2022-09-03T14:55:25.871Z,1.60
2022-09-03T15:00:20.974Z,1.50
2022-09-03T15:05:16.881Z,1.80
2022-09-03T15:10:32.118Z,1.42
2022-09-03T15:15:01.753Z,1.45
2022-09-03T15:19:45.072Z,1.10
2022-09-03T15:24:36.015Z,1.23
2022-09-03T15:29:10.312Z,1.30
2022-09-03T15:34:17.198Z,1.27
2022-09-03T15:39:16.732Z,1.70
2022-09-03T15:43:40.517Z,1.38
2022-09-03T15:48:36.734Z,1.27
2022-09-03T15:53:08.112Z,1.30
2022-09-03T15:58:09.592Z,1.70
2022-09-03T16:02:46.592Z,1.40
2022-09-03T16:07:21.593Z,1.65
2022-09-03T16:12:14.554Z,1.33
2022-09-03T16:16:58.433Z,1.58
2022-09-03T16:21:32.112Z,1.65
2022-09-03T16:26:09.294Z,1.50
2022-09-03T16:30:40.173Z,1.48
2022-09-03T16:35:32.470Z,1.52
2022-09-03T16:40:26.917Z,2.20
2022-09-03T16:45:12.012Z,2.03
2022-09-03T16:50:08.545Z,1.60
2022-09-03T16:55:16.095Z,1.70
2022-09-03T17:00:12.478Z,1.80
2022-09-03T17:05:09.072Z,1.75
2022-09-03T17:10:17.632Z,2.42
2022-09-03T17:14:42.512Z,2.20
2022-09-03T17:19:52.892Z,2.17
2022-09-03T17:24:47.972Z,3.40
2022-09-03T17:29:50.680Z,2.13
2022-09-03T17:34:27.832Z,1.92
2022-09-03T17:39:23.682Z,2.65
2022-09-03T17:43:58.833Z,2.35
2022-09-03T17:48:51.714Z,2.17
2022-09-03T17:53:27.059Z,2.90
2022-09-03T17:58:23.011Z,2.70
2022-09-03T18:03:30.371Z,2.55
2022-09-03T18:08:08.172Z,2.33
2022-09-03T18:13:04.063Z,2.13
2022-09-03T18:17:47.634Z,2.33
2022-09-03T18:22:28.672Z,3.33
2022-09-03T18:27:23.080Z,3.10
2022-09-03T18:32:04.712Z,2.67
2022-09-03T18:36:46.132Z,2.50
2022-09-03T18:41:51.691Z,2.70
2022-09-03T18:52:45.871Z,2.10
2022-09-03T18:58:05.491Z,2.38
2022-09-03T19:03:12.393Z,2.10
2022-09-03T19:08:32.473Z,2.22
2022-09-03T19:13:46.958Z,1.80
2022-09-03T19:18:54.537Z,2.70
2022-09-03T19:23:35.372Z,2.38
2022-09-03T19:28:37.248Z,2.35
2022-09-03T19:34:04.255Z,2.70
2022-09-03T19:39:29.702Z,2.22
2022-09-03T19:44:09.931Z,2.88
2022-09-03T19:49:11.503Z,1.88
2022-09-03T19:53:53.731Z,2.88
2022-09-03T19:58:44.051Z,2.97
2022-09-03T20:03:25.373Z,2.70
2022-09-03T20:08:11.133Z,3.35
2022-09-03T20:12:42.611Z,3.58
2022-09-03T20:17:36.752Z,3.70
2022-09-03T20:22:30.115Z,4.03
2022-09-03T20:27:34.172Z,2.80
2022-09-03T20:32:44.032Z,2.97
2022-09-03T20:37:41.231Z,2.78
2022-09-03T20:42:24.332Z,2.85
2022-09-03T20:47:02.571Z,2.60
2022-09-03T20:51:34.952Z,3.08
2022-09-03T20:56:06.432Z,2.95
2022-09-03T21:00:45.366Z,3.15
2022-09-03T21:05:35.512Z,2.88
2022-09-03T21:10:48.711Z,3.05
2022-09-03T21:15:35.710Z,2.95
2022-09-03T21:20:47.972Z,3.20
2022-09-03T21:25:18.911Z,3.42
2022-09-03T21:29:53.611Z,3.65
2022-09-03T21:35:13.731Z,3.42
2022-09-03T21:39:50.773Z,3.20
2022-09-03T21:44:41.132Z,3.03
2022-09-03T21:49:12.672Z,3.65
2022-09-03T21:53:55.213Z,3.33
2022-09-03T21:58:36.311Z,3.88
2022-09-03T22:02:59.451Z,3.85
2022-09-03T22:07:58.432Z,3.63
2022-09-03T22:13:16.448Z,3.28
2022-09-03T22:17:57.071Z,3.72
2022-09-03T22:22:47.955Z,4.05
2022-09-03T22:28:05.612Z,3.75
2022-09-03T22:32:56.132Z,3.35
2022-09-03T22:37:28.371Z,3.15
2022-09-03T22:42:38.531Z,3.15
2022-09-03T22:47:48.816Z,3.80
2022-09-03T22:52:37.214Z,3.88
2022-09-03T22:57:02.512Z,3.75
2022-09-03T23:01:53.393Z,4.22
2022-09-03T23:06:32.677Z,3.85
2022-09-03T23:11:23.351Z,3.75
2022-09-03T23:15:54.171Z,3.38
2022-09-03T23:20:27.914Z,3.90
2022-09-03T23:25:06.431Z,4.68
2022-09-03T23:29:46.303Z,4.32
2022-09-03T23:34:11.684Z,3.75
2022-09-03T23:38:53.111Z,4.57
2022-09-03T23:44:01.755Z,4.60
2022-09-03T23:48:30.211Z,4.07
2022-09-03T23:53:05.611Z,4.63
2022-09-03T23:57:42.054Z,3.88
